createdAt,value
2022-12-23T00:02:00.590Z,9.54
2022-12-23T00:04:29.744Z,9.52
2022-12-23T00:06:57.274Z,9.54
2022-12-23T00:09:24.767Z,9.54
2022-12-23T00:12:06.206Z,9.52
2022-12-23T00:14:51.071Z,9.54
2022-12-23T00:17:22.633Z,9.54
2022-12-23T00:19:52.105Z,9.52
2022-12-23T00:22:19.671Z,9.56
2022-12-23T00:24:47.157Z,9.55
2022-12-23T00:27:14.598Z,9.55
2022-12-23T00:29:42.079Z,9.55
2022-12-23T00:32:09.682Z,9.56
2022-12-23T00:34:37.252Z,9.56
2022-12-23T00:37:06.061Z,9.54
2022-12-23T00:39:54.874Z,9.54
2022-12-23T00:42:40.448Z,9.53
2022-12-23T00:45:16.369Z,9.52
2022-12-23T00:48:01.656Z,9.50
2022-12-23T00:50:30.077Z,9.50
2022-12-23T00:52:59.407Z,9.51
2022-12-23T00:55:26.933Z,9.51
2022-12-23T00:57:54.473Z,9.51
2022-12-23T01:00:42.357Z,9.51
2022-12-23T01:03:31.122Z,9.52
2022-12-23T01:05:59.917Z,9.52
2022-12-23T01:08:29.170Z,9.54
2022-12-23T01:10:56.792Z,9.55
2022-12-23T01:13:24.346Z,9.54
2022-12-23T01:15:51.842Z,9.55
2022-12-23T01:18:19.312Z,9.56
2022-12-23T01:20:46.821Z,9.57
2022-12-23T01:23:14.310Z,9.61
2022-12-23T01:25:43.125Z,9.63
2022-12-23T01:28:10.603Z,9.67
2022-12-23T01:30:38.349Z,9.69
2022-12-23T01:33:05.889Z,9.73
2022-12-23T01:35:33.341Z,9.76
2022-12-23T01:38:01.145Z,9.78
2022-12-23T01:40:28.641Z,9.82
2022-12-23T01:42:56.480Z,9.83
2022-12-23T01:45:29.469Z,9.85
2022-12-23T01:47:59.765Z,9.89
2022-12-23T01:50:32.293Z,9.92
2022-12-23T01:53:07.854Z,9.95
2022-12-23T01:55:39.901Z,9.97
2022-12-23T01:58:13.098Z,10.00
2022-12-23T02:00:59.481Z,10.02
2022-12-23T02:03:45.667Z,10.04
2022-12-23T02:06:37.726Z,10.06
2022-12-23T02:09:17.917Z,10.06
2022-12-23T02:12:10.182Z,10.08
2022-12-23T02:15:11.857Z,10.09
2022-12-23T02:17:49.032Z,10.11
2022-12-23T02:20:42.229Z,10.14
2022-12-23T02:23:24.962Z,10.15
2022-12-23T02:26:06.884Z,10.16
2022-12-23T02:29:04.609Z,10.17
2022-12-23T02:31:39.724Z,10.20
2022-12-23T02:34:15.724Z,10.22
2022-12-23T02:36:51.929Z,10.26
2022-12-23T02:39:23.105Z,10.29
2022-12-23T02:41:58.362Z,10.31
2022-12-23T02:44:32.694Z,10.33
2022-12-23T02:47:05.190Z,10.34
2022-12-23T02:49:37.035Z,10.36
2022-12-23T02:52:11.609Z,10.37
2022-12-23T02:54:42.900Z,10.38
2022-12-23T02:57:13.604Z,10.40
2022-12-23T02:59:46.723Z,10.41
2022-12-23T03:02:15.782Z,10.43
2022-12-23T03:04:43.598Z,10.44
2022-12-23T03:07:18.750Z,10.46
2022-12-23T03:09:55.763Z,10.48
2022-12-23T03:12:32.862Z,10.49
2022-12-23T03:15:13.031Z,10.50
2022-12-23T03:17:57.250Z,10.52
2022-12-23T03:20:29.784Z,10.54
2022-12-23T03:23:02.642Z,10.54
2022-12-23T03:25:34.706Z,10.57
2022-12-23T03:28:09.074Z,10.58
2022-12-23T03:30:40.296Z,10.60
2022-12-23T03:33:16.315Z,10.60
2022-12-23T03:35:48.956Z,10.61
2022-12-23T03:38:19.436Z,10.60
2022-12-23T03:40:52.968Z,10.62
2022-12-23T03:43:25.751Z,10.62
2022-12-23T03:45:55.503Z,10.64
2022-12-23T03:48:30.436Z,10.65
2022-12-23T03:51:02.191Z,10.63
2022-12-23T03:53:33.226Z,10.65
2022-12-23T03:56:04.845Z,10.65
2022-12-23T03:58:39.474Z,10.67
2022-12-23T04:01:13.936Z,10.67
2022-12-23T04:03:50.216Z,10.70
2022-12-23T04:06:20.483Z,10.71
2022-12-23T04:08:49.915Z,10.74
2022-12-23T04:11:17.568Z,10.75
2022-12-23T04:13:45.117Z,10.76
2022-12-23T04:16:12.757Z,10.77
2022-12-23T04:18:40.472Z,10.79
2022-12-23T04:21:09.339Z,10.79
2022-12-23T04:23:36.814Z,10.81
2022-12-23T04:26:04.561Z,10.82
2022-12-23T04:28:32.072Z,10.84
2022-12-23T04:30:59.578Z,10.85
2022-12-23T04:33:27.112Z,10.86
2022-12-23T04:35:54.724Z,10.86
2022-12-23T04:38:23.721Z,10.88
2022-12-23T04:40:51.212Z,10.88
2022-12-23T04:43:19.013Z,10.89
2022-12-23T04:45:50.987Z,10.90
2022-12-23T04:48:18.497Z,10.91
2022-12-23T04:50:46.205Z,10.92
2022-12-23T04:53:13.766Z,10.94
2022-12-23T04:55:42.722Z,10.96
2022-12-23T04:58:10.237Z,10.95
2022-12-23T05:00:40.000Z,10.97
2022-12-23T05:03:07.924Z,10.99
2022-12-23T05:05:35.645Z,10.99
2022-12-23T05:08:04.761Z,10.99
2022-12-23T05:10:32.826Z,10.99
2022-12-23T05:13:01.736Z,11.01
2022-12-23T05:15:29.226Z,11.01
2022-12-23T05:17:56.759Z,11.03
2022-12-23T05:20:24.234Z,11.03
2022-12-23T05:22:51.699Z,11.03
2022-12-23T05:25:19.361Z,11.05
2022-12-23T05:27:46.860Z,11.04
2022-12-23T05:30:15.926Z,11.05
2022-12-23T05:32:43.397Z,11.05
2022-12-23T05:35:11.103Z,11.05
2022-12-23T05:37:38.604Z,11.05
2022-12-23T05:40:07.051Z,11.05
2022-12-23T05:42:34.716Z,11.06
2022-12-23T05:45:02.194Z,11.06
2022-12-23T05:47:31.027Z,11.07
2022-12-23T05:49:58.683Z,11.07
2022-12-23T05:52:26.337Z,11.07
2022-12-23T05:54:53.789Z,11.06
2022-12-23T05:57:21.280Z,11.07
2022-12-23T05:59:48.770Z,11.05
2022-12-23T06:02:16.538Z,11.07
2022-12-23T06:04:45.445Z,11.05
2022-12-23T06:07:12.922Z,11.06
2022-12-23T06:09:40.410Z,11.04
2022-12-23T06:12:08.295Z,11.04
2022-12-23T06:14:35.887Z,11.04
2022-12-23T06:17:09.489Z,11.03
2022-12-23T06:19:37.621Z,11.03
2022-12-23T06:22:19.703Z,11.02
2022-12-23T06:24:47.570Z,11.03
2022-12-23T06:27:15.385Z,11.03
2022-12-23T06:29:42.960Z,11.03
2022-12-23T06:32:10.610Z,11.03
2022-12-23T06:34:38.129Z,11.04
2022-12-23T06:37:06.993Z,11.04
2022-12-23T06:39:34.504Z,11.04
2022-12-23T06:42:02.046Z,11.04
2022-12-23T06:44:29.542Z,11.04
2022-12-23T06:46:57.012Z,11.02
2022-12-23T06:49:24.488Z,11.03
2022-12-23T06:51:52.009Z,11.02
2022-12-23T06:54:20.827Z,11.03
2022-12-23T06:56:48.318Z,11.02
2022-12-23T06:59:15.829Z,11.00
2022-12-23T07:01:43.447Z,11.00
2022-12-23T07:04:11.320Z,11.01
2022-12-23T07:06:39.517Z,11.00
2022-12-23T07:09:07.253Z,11.00
2022-12-23T07:11:36.162Z,11.01
2022-12-23T07:14:03.773Z,11.03
2022-12-23T07:16:31.265Z,11.02
2022-12-23T07:18:58.762Z,11.00
2022-12-23T07:21:29.580Z,11.01
2022-12-23T07:23:57.676Z,11.02
2022-12-23T07:26:25.342Z,11.02
2022-12-23T07:28:54.217Z,11.02
2022-12-23T07:31:21.740Z,11.01
2022-12-23T07:33:49.316Z,11.02
2022-12-23T07:36:16.979Z,11.01
2022-12-23T07:38:44.429Z,11.01
2022-12-23T07:41:11.980Z,11.01
2022-12-23T07:43:40.062Z,11.04
2022-12-23T07:46:10.397Z,11.03
2022-12-23T07:48:37.930Z,11.04
2022-12-23T07:51:06.154Z,11.05
2022-12-23T07:53:33.701Z,11.07
2022-12-23T07:56:01.554Z,11.06
2022-12-23T07:58:29.056Z,11.07
2022-12-23T08:01:03.683Z,11.08
2022-12-23T08:03:32.947Z,11.09
2022-12-23T08:06:01.944Z,11.10
2022-12-23T08:08:29.645Z,11.09
2022-12-23T08:11:01.677Z,11.10
2022-12-23T08:13:29.448Z,11.11
2022-12-23T08:15:57.809Z,11.11
2022-12-23T08:18:26.202Z,11.12
2022-12-23T08:20:59.157Z,11.13
2022-12-23T08:23:28.116Z,11.13
2022-12-23T08:26:04.500Z,11.14
2022-12-23T08:28:32.388Z,11.16
2022-12-23T08:31:07.965Z,11.16
2022-12-23T08:33:36.635Z,11.15
2022-12-23T08:36:07.188Z,11.17
2022-12-23T08:38:35.598Z,11.17
2022-12-23T08:41:03.401Z,11.17
2022-12-23T08:43:35.788Z,11.17
2022-12-23T08:46:04.066Z,11.19
2022-12-23T08:48:31.986Z,11.18
2022-12-23T08:51:05.670Z,11.16
2022-12-23T08:53:33.496Z,11.16
2022-12-23T08:56:04.030Z,11.17
2022-12-23T08:58:31.558Z,11.17
2022-12-23T09:00:59.280Z,11.19
2022-12-23T09:03:26.890Z,11.20
2022-12-23T09:05:54.525Z,11.21
2022-12-23T09:08:23.399Z,11.21
2022-12-23T09:10:50.895Z,11.21
2022-12-23T09:13:27.846Z,11.23
2022-12-23T09:15:58.704Z,11.24
2022-12-23T09:18:26.334Z,11.25
2022-12-23T09:20:58.994Z,11.27
2022-12-23T09:23:27.711Z,11.29
2022-12-23T09:25:55.265Z,11.30
2022-12-23T09:28:24.190Z,11.29
2022-12-23T09:30:52.005Z,11.31
2022-12-23T09:33:19.771Z,11.31
2022-12-23T09:35:47.471Z,11.32
2022-12-23T09:38:14.979Z,11.33
2022-12-23T09:40:43.880Z,11.34
2022-12-23T09:43:21.528Z,11.36
2022-12-23T09:46:00.147Z,11.37
2022-12-23T09:48:30.838Z,11.39
2022-12-23T09:50:58.395Z,11.41
2022-12-23T09:53:33.480Z,11.42
2022-12-23T09:56:09.286Z,11.45
2022-12-23T09:58:42.804Z,11.45
2022-12-23T10:01:17.366Z,11.47
2022-12-23T10:04:04.892Z,11.47
2022-12-23T10:06:35.244Z,11.49
2022-12-23T10:09:05.944Z,11.49
2022-12-23T10:11:38.946Z,11.50
2022-12-23T10:14:15.692Z,11.51
2022-12-23T10:16:47.320Z,11.53
2022-12-23T10:19:19.038Z,11.54
2022-12-23T10:21:49.901Z,11.55
2022-12-23T10:24:22.651Z,11.57
2022-12-23T10:26:53.648Z,11.60
2022-12-23T10:29:23.235Z,11.60
2022-12-23T10:32:05.627Z,11.60
2022-12-23T10:34:46.020Z,11.61
2022-12-23T10:37:22.482Z,11.62
2022-12-23T10:40:08.395Z,11.63
2022-12-23T10:42:42.026Z,11.64
2022-12-23T10:45:27.630Z,11.66
2022-12-23T10:48:12.024Z,11.67
2022-12-23T10:50:54.670Z,11.69
2022-12-23T10:53:32.613Z,11.71
2022-12-23T10:56:01.611Z,11.71
2022-12-23T10:58:31.408Z,11.72
2022-12-23T11:01:01.211Z,11.72
2022-12-23T11:03:32.378Z,11.74
2022-12-23T11:06:03.027Z,11.76
2022-12-23T11:08:32.599Z,11.77
2022-12-23T11:11:01.114Z,11.78
2022-12-23T11:13:37.301Z,11.80
2022-12-23T11:16:16.454Z,11.81
2022-12-23T11:18:55.843Z,11.80
2022-12-23T11:21:23.381Z,11.80
2022-12-23T11:24:07.913Z,11.81
2022-12-23T11:26:36.390Z,11.80
2022-12-23T11:29:10.896Z,11.81
2022-12-23T11:31:38.864Z,11.81
2022-12-23T11:34:13.914Z,11.81
2022-12-23T11:36:42.427Z,11.80
2022-12-23T11:39:23.713Z,11.81
2022-12-23T11:41:55.118Z,11.81
2022-12-23T11:44:30.663Z,11.80
2022-12-23T11:46:58.542Z,11.80
2022-12-23T11:49:27.888Z,11.81
2022-12-23T11:52:02.795Z,11.81
2022-12-23T11:54:30.668Z,11.83
2022-12-23T11:56:59.582Z,11.82
2022-12-23T11:59:34.624Z,11.83
2022-12-23T12:02:11.144Z,11.83
2022-12-23T12:04:39.137Z,11.83
2022-12-23T12:07:08.226Z,11.84
2022-12-23T12:09:40.287Z,11.85
2022-12-23T12:12:16.294Z,11.85
2022-12-23T12:14:48.071Z,11.86
2022-12-23T12:17:21.793Z,11.87
2022-12-23T12:19:59.424Z,11.88
2022-12-23T12:22:34.462Z,11.89
2022-12-23T12:25:17.871Z,11.87
2022-12-23T12:27:51.211Z,11.86
2022-12-23T12:30:22.208Z,11.86
2022-12-23T12:33:00.815Z,11.86
2022-12-23T12:35:37.683Z,11.86
2022-12-23T12:38:14.095Z,11.85
2022-12-23T12:40:45.329Z,11.85
2022-12-23T12:43:21.746Z,11.88
2022-12-23T12:45:54.109Z,11.88
2022-12-23T12:48:33.183Z,11.89
2022-12-23T12:51:05.576Z,11.90
2022-12-23T12:53:34.583Z,11.90
2022-12-23T12:56:08.868Z,11.91
2022-12-23T12:58:36.358Z,11.91
2022-12-23T13:01:19.583Z,11.92
2022-12-23T13:04:06.306Z,11.92
2022-12-23T13:06:45.501Z,11.92
2022-12-23T13:09:23.775Z,11.93
2022-12-23T13:11:59.068Z,11.92
2022-12-23T13:14:38.188Z,11.94
2022-12-23T13:17:13.520Z,11.91
2022-12-23T13:19:49.751Z,11.89
2022-12-23T13:22:18.830Z,11.86
2022-12-23T13:24:58.449Z,11.84
2022-12-23T13:27:32.675Z,11.80
2022-12-23T13:30:13.070Z,11.78
2022-12-23T13:33:07.188Z,11.79
2022-12-23T13:36:04.930Z,11.76
2022-12-23T13:38:48.103Z,11.75
2022-12-23T13:41:24.701Z,11.75
2022-12-23T13:43:57.017Z,11.76
2022-12-23T13:46:33.319Z,11.77
2022-12-23T13:49:10.863Z,11.79
2022-12-23T13:51:44.807Z,11.81
2022-12-23T13:54:22.848Z,11.84
2022-12-23T13:57:01.375Z,11.85
2022-12-23T13:59:40.732Z,11.87
2022-12-23T14:02:44.597Z,11.91
2022-12-23T14:05:34.599Z,11.91
2022-12-23T14:08:05.103Z,11.91
2022-12-23T14:10:33.729Z,11.90
2022-12-23T14:13:04.835Z,11.92
2022-12-23T14:15:51.931Z,11.94
2022-12-23T14:18:34.600Z,11.95
2022-12-23T14:21:13.483Z,11.95
2022-12-23T14:24:00.930Z,11.97
2022-12-23T14:26:51.981Z,11.98
2022-12-23T14:29:53.552Z,11.99
2022-12-23T14:32:25.277Z,11.97
2022-12-23T14:35:17.306Z,11.97
2022-12-23T14:38:06.350Z,11.95
2022-12-23T14:40:53.284Z,11.95
2022-12-23T14:43:52.691Z,11.97
2022-12-23T14:46:46.784Z,11.98
2022-12-23T14:49:39.020Z,11.98
2022-12-23T14:52:53.767Z,11.99
2022-12-23T14:55:54.081Z,12.00
2022-12-23T14:58:36.953Z,11.99
2022-12-23T15:01:05.452Z,12.01
2022-12-23T15:03:35.902Z,12.00
2022-12-23T15:06:06.840Z,11.99
2022-12-23T15:08:39.225Z,12.00
2022-12-23T15:11:09.822Z,12.01
2022-12-23T15:13:38.886Z,12.01
2022-12-23T15:16:07.025Z,12.01
2022-12-23T15:18:34.619Z,12.01
2022-12-23T15:21:03.931Z,12.03
2022-12-23T15:23:33.267Z,12.02
2022-12-23T15:26:02.259Z,12.04
2022-12-23T15:28:36.846Z,12.04
2022-12-23T15:31:07.336Z,12.05
2022-12-23T15:34:02.112Z,12.07
2022-12-23T15:36:30.703Z,12.06
2022-12-23T15:38:59.562Z,12.07
2022-12-23T15:41:27.118Z,12.08
2022-12-23T15:43:57.895Z,12.08
2022-12-23T15:46:30.189Z,12.09
2022-12-23T15:48:58.197Z,12.12
2022-12-23T15:52:05.260Z,12.11
2022-12-23T15:54:28.419Z,12.11
2022-12-23T15:56:58.644Z,12.12
2022-12-23T15:59:28.640Z,12.12
2022-12-23T16:01:57.624Z,12.13
2022-12-23T16:04:27.924Z,12.15
2022-12-23T16:06:56.446Z,12.16
2022-12-23T16:09:30.802Z,12.18
2022-12-23T16:12:00.761Z,12.19
2022-12-23T16:14:40.004Z,12.20
2022-12-23T16:17:18.263Z,12.21
2022-12-23T16:19:47.261Z,12.21
2022-12-23T16:22:23.343Z,12.23
2022-12-23T16:25:08.039Z,12.23
2022-12-23T16:27:39.026Z,12.24
2022-12-23T16:30:16.012Z,12.25
2022-12-23T16:32:50.297Z,12.25
2022-12-23T16:35:29.224Z,12.25
2022-12-23T16:38:11.178Z,12.25
2022-12-23T16:40:40.700Z,12.27
2022-12-23T16:43:16.719Z,12.27
2022-12-23T16:45:46.822Z,12.27
2022-12-23T16:48:24.755Z,12.29
2022-12-23T16:50:53.521Z,12.29
2022-12-23T16:53:21.706Z,12.29
2022-12-23T16:56:00.860Z,12.30
2022-12-23T16:58:30.714Z,12.31
2022-12-23T17:00:58.898Z,12.30
2022-12-23T17:03:28.580Z,12.31
2022-12-23T17:05:58.452Z,12.32
2022-12-23T17:08:26.371Z,12.32
2022-12-23T17:10:55.097Z,12.33
2022-12-23T17:13:22.631Z,12.34
2022-12-23T17:15:50.412Z,12.35
2022-12-23T17:18:19.034Z,12.36
2022-12-23T17:20:50.183Z,12.37
2022-12-23T17:23:26.817Z,12.36
2022-12-23T17:25:54.729Z,12.37
2022-12-23T17:28:22.649Z,12.35
2022-12-23T17:30:58.652Z,12.35
2022-12-23T17:33:34.791Z,12.36
2022-12-23T17:36:57.890Z,12.36
2022-12-23T17:39:45.397Z,12.38
2022-12-23T17:42:25.277Z,12.36
2022-12-23T17:45:00.192Z,12.38
2022-12-23T17:47:32.081Z,12.39
2022-12-23T17:50:07.154Z,12.39
2022-12-23T17:52:46.953Z,12.39
2022-12-23T17:55:23.939Z,12.40
2022-12-23T17:57:53.836Z,12.40
2022-12-23T18:00:31.654Z,12.39
2022-12-23T18:03:02.335Z,12.42
2022-12-23T18:08:51.800Z,12.43
2022-12-23T18:12:14.080Z,12.44
2022-12-23T18:14:45.228Z,12.44
2022-12-23T18:17:19.587Z,12.44
2022-12-23T18:19:49.407Z,12.44
2022-12-23T18:22:20.457Z,12.44
2022-12-23T18:25:00.561Z,12.44
2022-12-23T18:27:29.301Z,12.41
2022-12-23T18:29:58.870Z,12.39
2022-12-23T18:32:39.818Z,12.36
2022-12-23T18:35:34.952Z,12.31
2022-12-23T18:38:04.563Z,12.23
2022-12-23T18:40:33.418Z,12.16
2022-12-23T18:43:02.231Z,12.14
2022-12-23T18:45:38.226Z,12.12
2022-12-23T18:48:08.244Z,12.11
2022-12-23T18:50:37.806Z,12.11
2022-12-23T18:53:06.002Z,12.10
2022-12-23T18:55:33.698Z,12.10
2022-12-23T18:58:01.646Z,12.10
2022-12-23T19:00:33.559Z,12.09
2022-12-23T19:03:01.201Z,12.08
2022-12-23T19:05:32.712Z,12.06
2022-12-23T19:08:00.302Z,12.08
2022-12-23T19:10:30.195Z,12.07
2022-12-23T19:12:57.755Z,12.06
2022-12-23T19:15:25.280Z,12.08
2022-12-23T19:17:54.393Z,12.07
2022-12-23T19:20:22.278Z,12.08
2022-12-23T19:22:49.932Z,12.07
2022-12-23T19:25:19.452Z,12.08
2022-12-23T19:27:47.655Z,12.07
2022-12-23T19:30:17.554Z,12.06
2022-12-23T19:32:45.647Z,12.05
2022-12-23T19:35:15.612Z,12.03
2022-12-23T19:37:43.307Z,12.03
2022-12-23T19:40:12.021Z,12.02
2022-12-23T19:42:40.084Z,12.02
2022-12-23T19:45:09.725Z,12.01
2022-12-23T19:47:37.697Z,12.02
2022-12-23T19:50:07.070Z,12.03
2022-12-23T19:52:36.406Z,12.03
2022-12-23T19:55:04.143Z,12.03
2022-12-23T19:57:31.846Z,12.03
2022-12-23T19:59:59.387Z,12.03
2022-12-23T20:02:26.916Z,12.04
2022-12-23T20:04:54.395Z,12.03
2022-12-23T20:07:24.883Z,12.04
2022-12-23T20:09:53.739Z,12.05
2022-12-23T20:12:21.439Z,12.06
2022-12-23T20:14:48.998Z,12.08
2022-12-23T20:17:16.489Z,12.09
2022-12-23T20:19:46.328Z,12.07
2022-12-23T20:22:14.078Z,12.06
2022-12-23T20:24:41.574Z,12.05
2022-12-23T20:27:12.111Z,12.05
2022-12-23T20:29:40.803Z,12.04
2022-12-23T20:32:08.286Z,12.06
2022-12-23T20:34:39.495Z,12.05
2022-12-23T20:37:08.228Z,12.06
2022-12-23T20:39:36.164Z,12.05
2022-12-23T20:42:04.870Z,12.06
2022-12-23T20:44:35.633Z,12.06
2022-12-23T20:47:04.039Z,12.07
2022-12-23T20:49:31.615Z,12.07
2022-12-23T20:51:59.285Z,12.06
2022-12-23T20:54:32.556Z,12.05
2022-12-23T20:57:01.428Z,12.05
2022-12-23T20:59:28.918Z,12.05
2022-12-23T21:01:59.343Z,12.05
2022-12-23T21:04:27.088Z,12.04
2022-12-23T21:06:54.560Z,12.05
2022-12-23T21:09:22.181Z,12.03
2022-12-23T21:11:49.764Z,12.03
2022-12-23T21:14:17.606Z,12.03
2022-12-23T21:16:45.578Z,12.03
2022-12-23T21:19:18.071Z,12.03
2022-12-23T21:21:46.555Z,12.03
2022-12-23T21:24:14.790Z,12.02
2022-12-23T21:26:42.617Z,12.02
2022-12-23T21:29:11.367Z,12.01
2022-12-23T21:31:41.484Z,12.01
2022-12-23T21:34:10.132Z,12.01
2022-12-23T21:36:39.680Z,12.01
2022-12-23T21:39:08.684Z,11.99
2022-12-23T21:41:38.483Z,11.99
2022-12-23T21:44:06.644Z,11.97
2022-12-23T21:46:34.386Z,11.95
2022-12-23T21:49:02.201Z,11.94
2022-12-23T21:51:39.011Z,11.91
2022-12-23T21:54:10.361Z,11.89
2022-12-23T21:56:38.324Z,11.86
2022-12-23T21:59:08.973Z,11.83
2022-12-23T22:01:36.474Z,11.81
2022-12-23T22:04:04.256Z,11.80
2022-12-23T22:06:33.604Z,11.77
2022-12-23T22:09:01.111Z,11.76
2022-12-23T22:11:32.372Z,11.75
2022-12-23T22:14:03.510Z,11.73
2022-12-23T22:16:31.725Z,11.72
2022-12-23T22:19:01.119Z,11.72
2022-12-23T22:21:30.505Z,11.72
2022-12-23T22:23:58.809Z,11.71
2022-12-23T22:26:28.334Z,11.70
2022-12-23T22:28:59.307Z,11.69
2022-12-23T22:31:32.308Z,11.69
2022-12-23T22:34:00.112Z,11.66
2022-12-23T22:36:27.927Z,11.65
2022-12-23T22:38:57.091Z,11.63
2022-12-23T22:41:25.409Z,11.63
2022-12-23T22:43:52.931Z,11.63
2022-12-23T22:46:22.047Z,11.63
2022-12-23T22:48:49.638Z,11.63
2022-12-23T22:51:19.089Z,11.61
2022-12-23T22:53:47.145Z,11.62
2022-12-23T22:56:16.746Z,11.62
2022-12-23T22:58:44.641Z,11.59
2022-12-23T23:01:21.280Z,11.59
2022-12-23T23:03:51.035Z,11.59
2022-12-23T23:06:19.105Z,11.58
2022-12-23T23:08:46.600Z,11.57
2022-12-23T23:11:14.130Z,11.55
2022-12-23T23:13:41.640Z,11.54
2022-12-23T23:16:09.320Z,11.55
2022-12-23T23:18:39.289Z,11.55
2022-12-23T23:21:08.332Z,11.54
2022-12-23T23:23:36.197Z,11.55
2022-12-23T23:26:04.508Z,11.55
2022-12-23T23:28:32.341Z,11.55
2022-12-23T23:31:39.261Z,11.54
2022-12-23T23:33:47.370Z,11.56
2022-12-23T23:36:17.836Z,11.55
2022-12-23T23:38:45.328Z,11.56
2022-12-23T23:41:16.144Z,11.55
2022-12-23T23:43:48.064Z,11.54
2022-12-23T23:46:15.623Z,11.53
2022-12-23T23:48:43.236Z,11.56
2022-12-23T23:51:10.712Z,11.55
2022-12-23T23:53:39.638Z,11.55
2022-12-23T23:56:08.647Z,11.54
2022-12-23T23:58:37.935Z,11.52
